sensor_id;sensor_type;location;lat;lon;timestamp;P1;durP1;ratioP1;P2;durP2;ratioP2
48963;SDS011;34776;48.180;16.420;2022-07-23T00:01:34;9.65;;;5.50;;
48963;SDS011;34776;48.180;16.420;2022-07-23T00:04:00;11.52;;;5.63;;
48963;SDS011;34776;48.180;16.420;2022-07-23T00:06:25;5.68;;;5.10;;
48963;SDS011;34776;48.180;16.420;2022-07-23T00:08:51;7.80;;;5.88;;
48963;SDS011;34776;48.180;16.420;2022-07-23T00:11:16;8.43;;;6.38;;
48963;SDS011;34776;48.180;16.420;2022-07-23T00:13:42;7.20;;;5.55;;
48963;SDS011;34776;48.180;16.420;2022-07-23T00:16:08;7.68;;;6.22;;
48963;SDS011;34776;48.180;16.420;2022-07-23T00:18:33;7.55;;;6.72;;
48963;SDS011;34776;48.180;16.420;2022-07-23T00:20:59;11.63;;;6.47;;
48963;SDS011;34776;48.180;16.420;2022-07-23T00:23:24;6.85;;;6.15;;
48963;SDS011;34776;48.180;16.420;2022-07-23T00:25:51;10.52;;;6.53;;
48963;SDS011;34776;48.180;16.420;2022-07-23T00:28:17;6.57;;;5.30;;
48963;SDS011;34776;48.180;16.420;2022-07-23T00:30:43;5.95;;;5.35;;
48963;SDS011;34776;48.180;16.420;2022-07-23T00:33:09;8.65;;;5.28;;
48963;SDS011;34776;48.180;16.420;2022-07-23T00:35:37;6.43;;;5.63;;
48963;SDS011;34776;48.180;16.420;2022-07-23T00:38:05;6.68;;;5.60;;
48963;SDS011;34776;48.180;16.420;2022-07-23T00:40:32;5.65;;;5.15;;
48963;SDS011;34776;48.180;16.420;2022-07-23T00:42:58;6.47;;;5.05;;
48963;SDS011;34776;48.180;16.420;2022-07-23T00:45:24;6.90;;;5.47;;
48963;SDS011;34776;48.180;16.420;2022-07-23T00:47:50;7.25;;;5.55;;
48963;SDS011;34776;48.180;16.420;2022-07-23T00:50:15;9.05;;;6.03;;
48963;SDS011;34776;48.180;16.420;2022-07-23T00:52:41;10.93;;;6.63;;
48963;SDS011;34776;48.180;16.420;2022-07-23T00:55:07;9.15;;;5.57;;
48963;SDS011;34776;48.180;16.420;2022-07-23T00:57:34;6.65;;;5.40;;
48963;SDS011;34776;48.180;16.420;2022-07-23T01:00:00;6.00;;;5.40;;
48963;SDS011;34776;48.180;16.420;2022-07-23T01:02:26;8.13;;;5.40;;
48963;SDS011;34776;48.180;16.420;2022-07-23T01:04:52;7.97;;;5.20;;
48963;SDS011;34776;48.180;16.420;2022-07-23T01:07:18;6.22;;;5.20;;
48963;SDS011;34776;48.180;16.420;2022-07-23T01:09:44;9.38;;;5.40;;
48963;SDS011;34776;48.180;16.420;2022-07-23T01:12:10;9.63;;;5.57;;
48963;SDS011;34776;48.180;16.420;2022-07-23T01:14:35;5.75;;;5.15;;
48963;SDS011;34776;48.180;16.420;2022-07-23T01:17:01;9.35;;;5.70;;
48963;SDS011;34776;48.180;16.420;2022-07-23T01:19:27;6.50;;;5.35;;
48963;SDS011;34776;48.180;16.420;2022-07-23T01:21:53;9.85;;;5.78;;
48963;SDS011;34776;48.180;16.420;2022-07-23T01:24:22;5.00;;;4.53;;
48963;SDS011;34776;48.180;16.420;2022-07-23T01:26:47;8.90;;;5.65;;
48963;SDS011;34776;48.180;16.420;2022-07-23T01:29:14;8.20;;;5.25;;
48963;SDS011;34776;48.180;16.420;2022-07-23T01:31:40;6.40;;;4.80;;
48963;SDS011;34776;48.180;16.420;2022-07-23T01:34:06;6.28;;;5.53;;
48963;SDS011;34776;48.180;16.420;2022-07-23T01:36:32;5.38;;;4.78;;
48963;SDS011;34776;48.180;16.420;2022-07-23T01:39:02;8.63;;;6.00;;
48963;SDS011;34776;48.180;16.420;2022-07-23T01:41:28;11.90;;;7.40;;
48963;SDS011;34776;48.180;16.420;2022-07-23T01:43:54;19.67;;;7.35;;
48963;SDS011;34776;48.180;16.420;2022-07-23T01:46:19;12.68;;;7.25;;
48963;SDS011;34776;48.180;16.420;2022-07-23T01:48:45;9.90;;;7.13;;
48963;SDS011;34776;48.180;16.420;2022-07-23T01:51:10;8.07;;;6.70;;
48963;SDS011;34776;48.180;16.420;2022-07-23T01:53:36;11.07;;;6.70;;
48963;SDS011;34776;48.180;16.420;2022-07-23T01:56:02;11.00;;;6.82;;
48963;SDS011;34776;48.180;16.420;2022-07-23T01:58:28;6.63;;;6.03;;
48963;SDS011;34776;48.180;16.420;2022-07-23T02:00:54;9.60;;;6.68;;
48963;SDS011;34776;48.180;16.420;2022-07-23T02:03:20;7.20;;;6.03;;
48963;SDS011;34776;48.180;16.420;2022-07-23T02:05:46;7.80;;;7.00;;
48963;SDS011;34776;48.180;16.420;2022-07-23T02:08:11;12.38;;;6.90;;
48963;SDS011;34776;48.180;16.420;2022-07-23T02:10:37;7.85;;;7.07;;
48963;SDS011;34776;48.180;16.420;2022-07-23T02:13:02;11.52;;;7.32;;
48963;SDS011;34776;48.180;16.420;2022-07-23T02:15:28;7.72;;;6.93;;
48963;SDS011;34776;48.180;16.420;2022-07-23T02:17:54;9.38;;;7.00;;
48963;SDS011;34776;48.180;16.420;2022-07-23T02:20:20;8.13;;;6.47;;
48963;SDS011;34776;48.180;16.420;2022-07-23T02:22:45;10.18;;;7.00;;
48963;SDS011;34776;48.180;16.420;2022-07-23T02:25:11;7.70;;;6.90;;
48963;SDS011;34776;48.180;16.420;2022-07-23T02:27:36;9.00;;;6.97;;
48963;SDS011;34776;48.180;16.420;2022-07-23T02:30:02;8.00;;;7.20;;
48963;SDS011;34776;48.180;16.420;2022-07-23T02:32:28;7.97;;;6.70;;
48963;SDS011;34776;48.180;16.420;2022-07-23T02:34:53;13.35;;;6.70;;
48963;SDS011;34776;48.180;16.420;2022-07-23T02:37:19;6.47;;;5.93;;
48963;SDS011;34776;48.180;16.420;2022-07-23T02:39:44;8.73;;;6.50;;
48963;SDS011;34776;48.180;16.420;2022-07-23T02:42:10;6.63;;;6.03;;
48963;SDS011;34776;48.180;16.420;2022-07-23T02:44:35;7.57;;;6.13;;
48963;SDS011;34776;48.180;16.420;2022-07-23T02:47:01;9.60;;;6.63;;
48963;SDS011;34776;48.180;16.420;2022-07-23T02:49:27;8.45;;;6.78;;
48963;SDS011;34776;48.180;16.420;2022-07-23T02:51:53;11.15;;;6.50;;
48963;SDS011;34776;48.180;16.420;2022-07-23T02:54:18;8.52;;;6.07;;
48963;SDS011;34776;48.180;16.420;2022-07-23T02:56:44;7.15;;;6.45;;
48963;SDS011;34776;48.180;16.420;2022-07-23T02:59:09;6.35;;;5.75;;
48963;SDS011;34776;48.180;16.420;2022-07-23T03:01:35;7.05;;;5.95;;
48963;SDS011;34776;48.180;16.420;2022-07-23T03:04:01;7.78;;;6.20;;
48963;SDS011;34776;48.180;16.420;2022-07-23T03:06:26;8.15;;;5.80;;
48963;SDS011;34776;48.180;16.420;2022-07-23T03:08:52;6.78;;;6.00;;
48963;SDS011;34776;48.180;16.420;2022-07-23T03:11:17;9.18;;;6.15;;
48963;SDS011;34776;48.180;16.420;2022-07-23T03:13:43;7.18;;;5.88;;
48963;SDS011;34776;48.180;16.420;2022-07-23T03:16:08;6.35;;;5.75;;
48963;SDS011;34776;48.180;16.420;2022-07-23T03:18:33;6.10;;;5.50;;
48963;SDS011;34776;48.180;16.420;2022-07-23T03:20:59;6.95;;;6.22;;
48963;SDS011;34776;48.180;16.420;2022-07-23T03:23:24;7.43;;;6.65;;
48963;SDS011;34776;48.180;16.420;2022-07-23T03:25:50;6.60;;;5.93;;
48963;SDS011;34776;48.180;16.420;2022-07-23T03:28:16;7.03;;;6.32;;
48963;SDS011;34776;48.180;16.420;2022-07-23T03:30:45;6.78;;;6.05;;
48963;SDS011;34776;48.180;16.420;2022-07-23T03:33:15;5.97;;;5.38;;
48963;SDS011;34776;48.180;16.420;2022-07-23T03:35:42;7.03;;;6.32;;
48963;SDS011;34776;48.180;16.420;2022-07-23T03:38:08;7.60;;;6.43;;
48963;SDS011;34776;48.180;16.420;2022-07-23T03:40:34;7.28;;;6.53;;
48963;SDS011;34776;48.180;16.420;2022-07-23T03:42:59;10.32;;;6.93;;
48963;SDS011;34776;48.180;16.420;2022-07-23T03:45:24;7.35;;;6.20;;
48963;SDS011;34776;48.180;16.420;2022-07-23T03:47:50;9.50;;;6.28;;
48963;SDS011;34776;48.180;16.420;2022-07-23T03:50:15;6.43;;;5.82;;
48963;SDS011;34776;48.180;16.420;2022-07-23T03:52:41;7.90;;;6.20;;
48963;SDS011;34776;48.180;16.420;2022-07-23T03:55:06;7.20;;;6.50;;
48963;SDS011;34776;48.180;16.420;2022-07-23T03:57:32;8.27;;;6.93;;
48963;SDS011;34776;48.180;16.420;2022-07-23T03:59:57;7.53;;;6.05;;
48963;SDS011;34776;48.180;16.420;2022-07-23T04:02:23;6.47;;;5.88;;
48963;SDS011;34776;48.180;16.420;2022-07-23T04:04:49;9.65;;;6.10;;
48963;SDS011;34776;48.180;16.420;2022-07-23T04:07:14;7.38;;;6.38;;
48963;SDS011;34776;48.180;16.420;2022-07-23T04:09:40;8.57;;;5.75;;
48963;SDS011;34776;48.180;16.420;2022-07-23T04:12:06;6.78;;;6.07;;
48963;SDS011;34776;48.180;16.420;2022-07-23T04:14:32;11.35;;;6.15;;
48963;SDS011;34776;48.180;16.420;2022-07-23T04:16:58;7.07;;;6.38;;
48963;SDS011;34776;48.180;16.420;2022-07-23T04:19:24;7.40;;;6.07;;
48963;SDS011;34776;48.180;16.420;2022-07-23T04:21:49;12.90;;;6.07;;
48963;SDS011;34776;48.180;16.420;2022-07-23T04:24:15;10.52;;;6.95;;
48963;SDS011;34776;48.180;16.420;2022-07-23T04:26:40;12.25;;;6.85;;
48963;SDS011;34776;48.180;16.420;2022-07-23T04:29:06;6.28;;;5.68;;
48963;SDS011;34776;48.180;16.420;2022-07-23T04:31:31;8.05;;;6.32;;
48963;SDS011;34776;48.180;16.420;2022-07-23T04:33:56;8.32;;;6.40;;
48963;SDS011;34776;48.180;16.420;2022-07-23T04:36:22;10.02;;;6.25;;
48963;SDS011;34776;48.180;16.420;2022-07-23T04:38:47;7.93;;;6.28;;
48963;SDS011;34776;48.180;16.420;2022-07-23T04:41:13;6.55;;;5.70;;
48963;SDS011;34776;48.180;16.420;2022-07-23T04:43:38;9.23;;;6.10;;
48963;SDS011;34776;48.180;16.420;2022-07-23T04:46:04;8.73;;;6.05;;
48963;SDS011;34776;48.180;16.420;2022-07-23T04:48:30;8.65;;;6.53;;
48963;SDS011;34776;48.180;16.420;2022-07-23T04:50:56;9.38;;;5.47;;
48963;SDS011;34776;48.180;16.420;2022-07-23T04:53:21;7.20;;;5.45;;
48963;SDS011;34776;48.180;16.420;2022-07-23T04:55:47;7.03;;;5.75;;
48963;SDS011;34776;48.180;16.420;2022-07-23T04:58:12;12.32;;;6.55;;
48963;SDS011;34776;48.180;16.420;2022-07-23T05:00:38;11.63;;;6.05;;
48963;SDS011;34776;48.180;16.420;2022-07-23T05:03:03;8.30;;;6.57;;
48963;SDS011;34776;48.180;16.420;2022-07-23T05:05:28;8.18;;;7.35;;
48963;SDS011;34776;48.180;16.420;2022-07-23T05:07:54;7.93;;;7.07;;
48963;SDS011;34776;48.180;16.420;2022-07-23T05:10:19;8.77;;;7.70;;
48963;SDS011;34776;48.180;16.420;2022-07-23T05:12:45;7.40;;;6.63;;
48963;SDS011;34776;48.180;16.420;2022-07-23T05:15:10;7.65;;;6.72;;
48963;SDS011;34776;48.180;16.420;2022-07-23T05:17:36;8.85;;;6.93;;
48963;SDS011;34776;48.180;16.420;2022-07-23T05:20:01;10.93;;;6.90;;
48963;SDS011;34776;48.180;16.420;2022-07-23T05:22:28;17.13;;;7.20;;
48963;SDS011;34776;48.180;16.420;2022-07-23T05:24:53;8.15;;;6.03;;
48963;SDS011;34776;48.180;16.420;2022-07-23T05:27:19;10.05;;;7.13;;
48963;SDS011;34776;48.180;16.420;2022-07-23T05:29:44;7.88;;;7.00;;
48963;SDS011;34776;48.180;16.420;2022-07-23T05:32:09;10.65;;;6.50;;
48963;SDS011;34776;48.180;16.420;2022-07-23T05:34:35;7.32;;;6.50;;
48963;SDS011;34776;48.180;16.420;2022-07-23T05:37:00;14.55;;;6.25;;
48963;SDS011;34776;48.180;16.420;2022-07-23T05:39:26;8.93;;;6.63;;
48963;SDS011;34776;48.180;16.420;2022-07-23T05:41:51;10.38;;;7.13;;
48963;SDS011;34776;48.180;16.420;2022-07-23T05:44:17;7.28;;;5.80;;
48963;SDS011;34776;48.180;16.420;2022-07-23T05:46:43;7.18;;;6.30;;
48963;SDS011;34776;48.180;16.420;2022-07-23T05:49:09;10.05;;;6.13;;
48963;SDS011;34776;48.180;16.420;2022-07-23T05:51:34;8.05;;;6.85;;
48963;SDS011;34776;48.180;16.420;2022-07-23T05:53:59;9.13;;;7.22;;
48963;SDS011;34776;48.180;16.420;2022-07-23T05:56:25;8.50;;;7.13;;
48963;SDS011;34776;48.180;16.420;2022-07-23T05:58:50;9.95;;;6.47;;
48963;SDS011;34776;48.180;16.420;2022-07-23T06:01:16;8.27;;;7.35;;
48963;SDS011;34776;48.180;16.420;2022-07-23T06:03:41;8.55;;;6.50;;
48963;SDS011;34776;48.180;16.420;2022-07-23T06:06:06;9.75;;;7.13;;
48963;SDS011;34776;48.180;16.420;2022-07-23T06:08:32;8.30;;;6.20;;
48963;SDS011;34776;48.180;16.420;2022-07-23T06:10:58;10.77;;;7.10;;
48963;SDS011;34776;48.180;16.420;2022-07-23T06:13:24;22.58;;;7.70;;
48963;SDS011;34776;48.180;16.420;2022-07-23T06:15:49;10.85;;;6.68;;
48963;SDS011;34776;48.180;16.420;2022-07-23T06:18:15;12.13;;;7.07;;
48963;SDS011;34776;48.180;16.420;2022-07-23T06:20:41;10.07;;;7.05;;
48963;SDS011;34776;48.180;16.420;2022-07-23T06:23:06;15.98;;;7.72;;
48963;SDS011;34776;48.180;16.420;2022-07-23T06:25:32;16.00;;;6.57;;
48963;SDS011;34776;48.180;16.420;2022-07-23T06:27:57;19.75;;;6.68;;
48963;SDS011;34776;48.180;16.420;2022-07-23T06:30:22;28.83;;;7.07;;
48963;SDS011;34776;48.180;16.420;2022-07-23T06:32:48;20.63;;;7.30;;
48963;SDS011;34776;48.180;16.420;2022-07-23T06:35:14;8.40;;;6.47;;
48963;SDS011;34776;48.180;16.420;2022-07-23T06:37:40;11.52;;;6.70;;
48963;SDS011;34776;48.180;16.420;2022-07-23T06:40:06;23.33;;;6.88;;
48963;SDS011;34776;48.180;16.420;2022-07-23T06:42:32;16.85;;;6.25;;
48963;SDS011;34776;48.180;16.420;2022-07-23T06:44:57;9.75;;;5.90;;
48963;SDS011;34776;48.180;16.420;2022-07-23T06:47:23;11.63;;;5.00;;
48963;SDS011;34776;48.180;16.420;2022-07-23T06:49:48;7.88;;;5.30;;
48963;SDS011;34776;48.180;16.420;2022-07-23T06:52:14;7.88;;;5.07;;
48963;SDS011;34776;48.180;16.420;2022-07-23T06:54:39;6.60;;;4.30;;
48963;SDS011;34776;48.180;16.420;2022-07-23T06:57:04;6.15;;;4.30;;
48963;SDS011;34776;48.180;16.420;2022-07-23T06:59:30;15.45;;;5.18;;
48963;SDS011;34776;48.180;16.420;2022-07-23T07:01:55;14.52;;;4.90;;
48963;SDS011;34776;48.180;16.420;2022-07-23T07:04:22;4.97;;;4.07;;
48963;SDS011;34776;48.180;16.420;2022-07-23T07:06:47;6.13;;;4.05;;
48963;SDS011;34776;48.180;16.420;2022-07-23T07:09:13;5.57;;;3.78;;
48963;SDS011;34776;48.180;16.420;2022-07-23T07:11:38;7.82;;;4.72;;
48963;SDS011;34776;48.180;16.420;2022-07-23T07:14:04;9.02;;;3.92;;
48963;SDS011;34776;48.180;16.420;2022-07-23T07:16:29;6.65;;;3.55;;
48963;SDS011;34776;48.180;16.420;2022-07-23T07:18:55;8.20;;;4.00;;
48963;SDS011;34776;48.180;16.420;2022-07-23T07:21:20;20.58;;;5.18;;
48963;SDS011;34776;48.180;16.420;2022-07-23T07:23:46;22.70;;;4.25;;
48963;SDS011;34776;48.180;16.420;2022-07-23T07:26:11;20.77;;;3.38;;
48963;SDS011;34776;48.180;16.420;2022-07-23T07:28:36;6.03;;;3.25;;
48963;SDS011;34776;48.180;16.420;2022-07-23T07:31:02;10.68;;;3.60;;
48963;SDS011;34776;48.180;16.420;2022-07-23T07:33:28;5.00;;;3.10;;
48963;SDS011;34776;48.180;16.420;2022-07-23T07:35:53;5.55;;;3.42;;
48963;SDS011;34776;48.180;16.420;2022-07-23T07:38:19;7.78;;;3.17;;
48963;SDS011;34776;48.180;16.420;2022-07-23T07:40:44;10.98;;;2.90;;
48963;SDS011;34776;48.180;16.420;2022-07-23T07:43:10;23.15;;;3.40;;
48963;SDS011;34776;48.180;16.420;2022-07-23T07:45:35;13.77;;;3.65;;
48963;SDS011;34776;48.180;16.420;2022-07-23T07:48:01;13.57;;;3.38;;
48963;SDS011;34776;48.180;16.420;2022-07-23T07:50:28;29.77;;;3.90;;
48963;SDS011;34776;48.180;16.420;2022-07-23T07:52:53;5.05;;;2.72;;
48963;SDS011;34776;48.180;16.420;2022-07-23T07:55:19;24.73;;;4.15;;
48963;SDS011;34776;48.180;16.420;2022-07-23T07:57:44;17.95;;;3.67;;
48963;SDS011;34776;48.180;16.420;2022-07-23T08:00:10;22.95;;;3.85;;
48963;SDS011;34776;48.180;16.420;2022-07-23T08:02:40;10.45;;;3.17;;
48963;SDS011;34776;48.180;16.420;2022-07-23T08:05:06;3.97;;;3.67;;
48963;SDS011;34776;48.180;16.420;2022-07-23T08:07:31;4.50;;;3.08;;
48963;SDS011;34776;48.180;16.420;2022-07-23T08:09:57;6.28;;;3.30;;
48963;SDS011;34776;48.180;16.420;2022-07-23T08:12:22;27.08;;;4.18;;
48963;SDS011;34776;48.180;16.420;2022-07-23T08:14:48;6.50;;;3.38;;
48963;SDS011;34776;48.180;16.420;2022-07-23T08:17:13;3.80;;;2.83;;
48963;SDS011;34776;48.180;16.420;2022-07-23T08:19:38;12.60;;;4.03;;
48963;SDS011;34776;48.180;16.420;2022-07-23T08:22:04;11.95;;;3.90;;
48963;SDS011;34776;48.180;16.420;2022-07-23T08:24:29;12.20;;;3.47;;
48963;SDS011;34776;48.180;16.420;2022-07-23T08:26:55;4.93;;;3.45;;
48963;SDS011;34776;48.180;16.420;2022-07-23T08:29:20;4.63;;;3.17;;
48963;SDS011;34776;48.180;16.420;2022-07-23T08:31:45;7.53;;;3.30;;
48963;SDS011;34776;48.180;16.420;2022-07-23T08:34:11;12.05;;;4.22;;
48963;SDS011;34776;48.180;16.420;2022-07-23T08:36:37;8.02;;;3.20;;
48963;SDS011;34776;48.180;16.420;2022-07-23T08:39:02;14.57;;;3.80;;
48963;SDS011;34776;48.180;16.420;2022-07-23T08:41:28;11.80;;;4.00;;
48963;SDS011;34776;48.180;16.420;2022-07-23T08:43:55;6.45;;;3.40;;
48963;SDS011;34776;48.180;16.420;2022-07-23T08:46:21;4.45;;;3.53;;
48963;SDS011;34776;48.180;16.420;2022-07-23T08:48:48;4.28;;;3.33;;
48963;SDS011;34776;48.180;16.420;2022-07-23T08:51:14;9.68;;;4.05;;
48963;SDS011;34776;48.180;16.420;2022-07-23T08:53:39;9.02;;;3.35;;
48963;SDS011;34776;48.180;16.420;2022-07-23T08:56:06;6.68;;;3.60;;
48963;SDS011;34776;48.180;16.420;2022-07-23T08:58:33;3.95;;;3.58;;
48963;SDS011;34776;48.180;16.420;2022-07-23T09:00:59;6.85;;;3.67;;
48963;SDS011;34776;48.180;16.420;2022-07-23T09:03:26;6.30;;;3.35;;
48963;SDS011;34776;48.180;16.420;2022-07-23T09:05:56;3.53;;;3.22;;
48963;SDS011;34776;48.180;16.420;2022-07-23T09:08:24;7.93;;;3.03;;
48963;SDS011;34776;48.180;16.420;2022-07-23T09:10:58;5.07;;;3.10;;
48963;SDS011;34776;48.180;16.420;2022-07-23T09:16:06;4.55;;;3.00;;
48963;SDS011;34776;48.180;16.420;2022-07-23T09:21:17;3.45;;;3.15;;
48963;SDS011;34776;48.180;16.420;2022-07-23T09:23:46;3.53;;;3.17;;
48963;SDS011;34776;48.180;16.420;2022-07-23T09:28:52;6.07;;;2.90;;
48963;SDS011;34776;48.180;16.420;2022-07-23T09:31:23;4.45;;;3.40;;
48963;SDS011;34776;48.180;16.420;2022-07-23T09:33:49;5.90;;;3.50;;
48963;SDS011;34776;48.180;16.420;2022-07-23T09:36:15;3.97;;;3.05;;
48963;SDS011;34776;48.180;16.420;2022-07-23T09:38:51;5.35;;;3.72;;
48963;SDS011;34776;48.180;16.420;2022-07-23T09:41:17;5.22;;;3.97;;
48963;SDS011;34776;48.180;16.420;2022-07-23T09:43:43;4.13;;;3.72;;
48963;SDS011;34776;48.180;16.420;2022-07-23T09:48:46;4.38;;;3.40;;
48963;SDS011;34776;48.180;16.420;2022-07-23T09:51:12;4.00;;;3.60;;
48963;SDS011;34776;48.180;16.420;2022-07-23T09:53:41;5.35;;;3.70;;
48963;SDS011;34776;48.180;16.420;2022-07-23T09:56:07;4.50;;;3.60;;
48963;SDS011;34776;48.180;16.420;2022-07-23T09:58:33;4.82;;;3.90;;
48963;SDS011;34776;48.180;16.420;2022-07-23T10:01:08;4.03;;;3.53;;
48963;SDS011;34776;48.180;16.420;2022-07-23T10:03:35;6.38;;;3.80;;
48963;SDS011;34776;48.180;16.420;2022-07-23T10:06:01;4.47;;;3.60;;
48963;SDS011;34776;48.180;16.420;2022-07-23T10:08:27;3.72;;;3.40;;
48963;SDS011;34776;48.180;16.420;2022-07-23T10:10:54;3.65;;;3.35;;
48963;SDS011;34776;48.180;16.420;2022-07-23T10:13:20;4.07;;;3.67;;
48963;SDS011;34776;48.180;16.420;2022-07-23T10:15:48;4.68;;;3.88;;
48963;SDS011;34776;48.180;16.420;2022-07-23T10:18:15;10.55;;;4.30;;
48963;SDS011;34776;48.180;16.420;2022-07-23T10:20:41;5.40;;;4.15;;
48963;SDS011;34776;48.180;16.420;2022-07-23T10:23:20;6.50;;;3.67;;
48963;SDS011;34776;48.180;16.420;2022-07-23T10:26:02;5.00;;;4.10;;
48963;SDS011;34776;48.180;16.420;2022-07-23T10:37:12;6.63;;;3.95;;
48963;SDS011;34776;48.180;16.420;2022-07-23T10:39:47;4.40;;;3.92;;
48963;SDS011;34776;48.180;16.420;2022-07-23T10:42:15;6.15;;;3.85;;
48963;SDS011;34776;48.180;16.420;2022-07-23T10:44:46;4.15;;;3.72;;
48963;SDS011;34776;48.180;16.420;2022-07-23T10:47:27;3.70;;;3.40;;
48963;SDS011;34776;48.180;16.420;2022-07-23T10:50:19;6.32;;;3.90;;
48963;SDS011;34776;48.180;16.420;2022-07-23T10:58:00;6.30;;;4.45;;
48963;SDS011;34776;48.180;16.420;2022-07-23T11:00:27;6.63;;;4.15;;
48963;SDS011;34776;48.180;16.420;2022-07-23T11:02:56;4.90;;;4.00;;
48963;SDS011;34776;48.180;16.420;2022-07-23T11:10:45;7.30;;;4.50;;
48963;SDS011;34776;48.180;16.420;2022-07-23T11:32:36;6.15;;;4.63;;
48963;SDS011;34776;48.180;16.420;2022-07-23T11:34:52;10.55;;;4.90;;
48963;SDS011;34776;48.180;16.420;2022-07-23T11:37:29;7.53;;;4.70;;
48963;SDS011;34776;48.180;16.420;2022-07-23T11:40:06;8.02;;;4.50;;
48963;SDS011;34776;48.180;16.420;2022-07-23T11:42:34;7.68;;;4.90;;
48963;SDS011;34776;48.180;16.420;2022-07-23T11:45:01;6.95;;;4.93;;
48963;SDS011;34776;48.180;16.420;2022-07-23T11:47:27;6.22;;;4.60;;
48963;SDS011;34776;48.180;16.420;2022-07-23T11:49:57;5.50;;;4.60;;
48963;SDS011;34776;48.180;16.420;2022-07-23T11:52:24;7.97;;;5.15;;
48963;SDS011;34776;48.180;16.420;2022-07-23T11:55:01;10.35;;;5.40;;
48963;SDS011;34776;48.180;16.420;2022-07-23T11:57:28;7.13;;;4.90;;
48963;SDS011;34776;48.180;16.420;2022-07-23T12:02:42;9.10;;;5.00;;
48963;SDS011;34776;48.180;16.420;2022-07-23T12:05:13;6.90;;;4.80;;
48963;SDS011;34776;48.180;16.420;2022-07-23T12:07:41;7.22;;;5.00;;
48963;SDS011;34776;48.180;16.420;2022-07-23T12:10:11;6.47;;;5.00;;
48963;SDS011;34776;48.180;16.420;2022-07-23T12:12:43;5.15;;;4.65;;
48963;SDS011;34776;48.180;16.420;2022-07-23T12:15:11;6.38;;;4.90;;
48963;SDS011;34776;48.180;16.420;2022-07-23T12:17:38;6.32;;;4.80;;
48963;SDS011;34776;48.180;16.420;2022-07-23T12:20:06;5.85;;;4.60;;
48963;SDS011;34776;48.180;16.420;2022-07-23T12:22:35;5.15;;;4.40;;
48963;SDS011;34776;48.180;16.420;2022-07-23T12:25:07;8.25;;;4.55;;
48963;SDS011;34776;48.180;16.420;2022-07-23T12:27:35;8.10;;;5.25;;
48963;SDS011;34776;48.180;16.420;2022-07-23T12:32:50;8.65;;;4.90;;
48963;SDS011;34776;48.180;16.420;2022-07-23T12:35:17;5.78;;;4.82;;
48963;SDS011;34776;48.180;16.420;2022-07-23T12:37:44;6.43;;;5.10;;
48963;SDS011;34776;48.180;16.420;2022-07-23T12:42:57;4.45;;;4.05;;
48963;SDS011;34776;48.180;16.420;2022-07-23T12:45:24;6.57;;;4.38;;
48963;SDS011;34776;48.180;16.420;2022-07-23T12:47:56;5.70;;;4.43;;
48963;SDS011;34776;48.180;16.420;2022-07-23T12:50:34;6.63;;;4.55;;
48963;SDS011;34776;48.180;16.420;2022-07-23T12:53:45;5.97;;;5.38;;
48963;SDS011;34776;48.180;16.420;2022-07-23T12:55:59;5.10;;;4.47;;
48963;SDS011;34776;48.180;16.420;2022-07-23T12:58:26;5.75;;;4.00;;
48963;SDS011;34776;48.180;16.420;2022-07-23T13:03:38;4.60;;;4.20;;
48963;SDS011;34776;48.180;16.420;2022-07-23T13:06:09;4.20;;;3.80;;
48963;SDS011;34776;48.180;16.420;2022-07-23T13:08:39;5.05;;;4.05;;
48963;SDS011;34776;48.180;16.420;2022-07-23T13:11:05;4.38;;;3.88;;
48963;SDS011;34776;48.180;16.420;2022-07-23T13:13:32;4.53;;;3.90;;
48963;SDS011;34776;48.180;16.420;2022-07-23T13:15:59;6.13;;;3.40;;
48963;SDS011;34776;48.180;16.420;2022-07-23T13:18:25;6.38;;;3.22;;
48963;SDS011;34776;48.180;16.420;2022-07-23T13:20:51;4.38;;;3.17;;
48963;SDS011;34776;48.180;16.420;2022-07-23T13:23:17;2.88;;;2.55;;
48963;SDS011;34776;48.180;16.420;2022-07-23T13:25:44;3.28;;;2.97;;
48963;SDS011;34776;48.180;16.420;2022-07-23T13:28:10;2.95;;;2.58;;
48963;SDS011;34776;48.180;16.420;2022-07-23T13:30:36;4.38;;;2.70;;
48963;SDS011;34776;48.180;16.420;2022-07-23T13:33:03;2.63;;;2.42;;
48963;SDS011;34776;48.180;16.420;2022-07-23T13:35:29;9.73;;;3.20;;
48963;SDS011;34776;48.180;16.420;2022-07-23T13:37:54;2.83;;;2.55;;
48963;SDS011;34776;48.180;16.420;2022-07-23T13:40:20;4.30;;;2.70;;
48963;SDS011;34776;48.180;16.420;2022-07-23T13:42:46;2.95;;;2.40;;
48963;SDS011;34776;48.180;16.420;2022-07-23T13:45:12;2.47;;;2.28;;
48963;SDS011;34776;48.180;16.420;2022-07-23T13:47:38;3.33;;;2.45;;
48963;SDS011;34776;48.180;16.420;2022-07-23T13:50:03;6.30;;;2.90;;
48963;SDS011;34776;48.180;16.420;2022-07-23T13:52:30;3.25;;;2.42;;
48963;SDS011;34776;48.180;16.420;2022-07-23T13:54:56;5.45;;;2.70;;
48963;SDS011;34776;48.180;16.420;2022-07-23T13:57:22;5.47;;;2.10;;
48963;SDS011;34776;48.180;16.420;2022-07-23T13:59:47;4.88;;;2.00;;
48963;SDS011;34776;48.180;16.420;2022-07-23T14:02:13;3.08;;;2.42;;
48963;SDS011;34776;48.180;16.420;2022-07-23T14:04:41;2.30;;;2.10;;
48963;SDS011;34776;48.180;16.420;2022-07-23T14:07:07;3.53;;;2.67;;
48963;SDS011;34776;48.180;16.420;2022-07-23T14:09:32;3.13;;;2.80;;
48963;SDS011;34776;48.180;16.420;2022-07-23T14:11:59;4.45;;;2.33;;
48963;SDS011;34776;48.180;16.420;2022-07-23T14:14:24;3.08;;;2.40;;
48963;SDS011;34776;48.180;16.420;2022-07-23T14:16:50;3.85;;;2.40;;
48963;SDS011;34776;48.180;16.420;2022-07-23T14:19:15;2.65;;;1.92;;
48963;SDS011;34776;48.180;16.420;2022-07-23T14:21:41;4.35;;;2.47;;
48963;SDS011;34776;48.180;16.420;2022-07-23T14:24:06;2.45;;;2.25;;
48963;SDS011;34776;48.180;16.420;2022-07-23T14:26:32;2.33;;;2.10;;
48963;SDS011;34776;48.180;16.420;2022-07-23T14:28:58;2.75;;;2.40;;
48963;SDS011;34776;48.180;16.420;2022-07-23T14:31:23;2.45;;;2.25;;
48963;SDS011;34776;48.180;16.420;2022-07-23T14:33:48;2.50;;;2.30;;
48963;SDS011;34776;48.180;16.420;2022-07-23T14:36:14;3.42;;;2.22;;
48963;SDS011;34776;48.180;16.420;2022-07-23T14:38:40;2.35;;;2.15;;
48963;SDS011;34776;48.180;16.420;2022-07-23T14:41:05;5.10;;;2.20;;
48963;SDS011;34776;48.180;16.420;2022-07-23T14:43:33;2.53;;;2.15;;
48963;SDS011;34776;48.180;16.420;2022-07-23T14:45:58;2.47;;;2.28;;
48963;SDS011;34776;48.180;16.420;2022-07-23T14:48:24;3.47;;;2.28;;
48963;SDS011;34776;48.180;16.420;2022-07-23T14:50:50;2.83;;;2.40;;
48963;SDS011;34776;48.180;16.420;2022-07-23T14:53:15;4.70;;;2.70;;
48963;SDS011;34776;48.180;16.420;2022-07-23T14:55:41;3.95;;;2.33;;
48963;SDS011;34776;48.180;16.420;2022-07-23T14:58:06;2.65;;;2.28;;
48963;SDS011;34776;48.180;16.420;2022-07-23T15:00:32;3.42;;;2.25;;
48963;SDS011;34776;48.180;16.420;2022-07-23T15:02:58;3.90;;;2.42;;
48963;SDS011;34776;48.180;16.420;2022-07-23T15:05:23;4.40;;;2.50;;
48963;SDS011;34776;48.180;16.420;2022-07-23T15:07:49;6.75;;;3.15;;
48963;SDS011;34776;48.180;16.420;2022-07-23T15:10:14;4.00;;;2.80;;
48963;SDS011;34776;48.180;16.420;2022-07-23T15:12:40;8.25;;;2.97;;
48963;SDS011;34776;48.180;16.420;2022-07-23T15:15:05;3.22;;;2.42;;
48963;SDS011;34776;48.180;16.420;2022-07-23T15:17:32;7.55;;;2.50;;
48963;SDS011;34776;48.180;16.420;2022-07-23T15:19:58;3.15;;;2.83;;
48963;SDS011;34776;48.180;16.420;2022-07-23T15:22:23;3.40;;;3.08;;
48963;SDS011;34776;48.180;16.420;2022-07-23T15:24:49;3.22;;;2.92;;
48963;SDS011;34776;48.180;16.420;2022-07-23T15:27:14;6.85;;;3.00;;